Pilot Butte, Canada
Current Conditions -  °F | °C
As of 12:00 PM on Thursday 23 Oct 2014 (Local Time) from CYQR Reporting Station
Broken Clouds Broken Clouds  
Wind Chill: 10°   Ceiling: 15000
Heat Index: 10°   Visibility: 15mi
Dew Point:   Wind: 8mph
Humidity: 76%   Direction: 160°SSE
Pressure: 29.7"   Gusts: NA
Location:  50.48°N, 104.42°W
Report Text: CYQR 231800Z 16007KT 15SM FEW080 BKN150 BKN200 10/06 A2970 RMK AC1AC4CI2 SLP078 DENSITY ALT 2000FT
Loading
Personal Weather Stations






























Interactive Weather Map
Tropical Storm Tracking
New forecast layout! Learn more

10-Day Weather Forecast

Advertisements
Track Severe Weather on mobile